createdAt,value
2022-10-12T00:02:06.960Z,4.40
2022-10-12T00:06:18.128Z,3.15
2022-10-12T00:10:20.119Z,3.40
2022-10-12T00:14:22.148Z,2.92
2022-10-12T00:18:24.202Z,2.95
2022-10-12T00:22:26.269Z,3.15
2022-10-12T00:26:29.555Z,2.80
2022-10-12T00:30:31.723Z,2.67
2022-10-12T00:34:33.771Z,2.80
2022-10-12T00:38:35.773Z,2.75
2022-10-12T00:42:37.769Z,3.30
2022-10-12T00:46:44.835Z,2.92
2022-10-12T00:50:46.963Z,3.17
2022-10-12T00:54:51.005Z,3.05
2022-10-12T00:58:54.883Z,2.70
2022-10-12T01:02:58.129Z,2.88
2022-10-12T01:07:00.875Z,2.58
2022-10-12T01:11:03.909Z,2.55
2022-10-12T01:15:06.716Z,2.20
2022-10-12T01:19:34.186Z,2.40
2022-10-12T01:23:55.278Z,2.05
2022-10-12T01:28:11.813Z,2.40
2022-10-12T01:32:21.768Z,2.20
2022-10-12T01:36:37.256Z,2.50
2022-10-12T01:40:50.985Z,2.53
2022-10-12T01:45:08.419Z,2.65
2022-10-12T01:53:33.213Z,3.00
2022-10-12T01:58:04.689Z,3.08
2022-10-12T02:02:19.018Z,3.22
2022-10-12T02:06:24.269Z,3.08
2022-10-12T02:10:38.901Z,3.58
2022-10-12T02:14:46.785Z,3.30
2022-10-12T02:18:52.602Z,3.70
2022-10-12T02:22:55.011Z,3.33
2022-10-12T02:26:58.257Z,3.25
2022-10-12T02:31:09.272Z,3.13
2022-10-12T02:35:25.261Z,3.30
2022-10-12T02:39:32.463Z,3.10
2022-10-12T02:47:40.591Z,2.85
2022-10-12T02:51:44.603Z,2.72
2022-10-12T02:55:56.047Z,2.97
2022-10-12T02:59:58.041Z,3.38
2022-10-12T03:04:00.031Z,3.08
2022-10-12T03:08:01.996Z,3.28
2022-10-12T03:12:04.071Z,3.60
2022-10-12T03:16:11.339Z,3.45
2022-10-12T03:20:13.625Z,3.20
2022-10-12T03:24:15.598Z,2.75
2022-10-12T03:28:17.718Z,3.03
2022-10-12T03:32:19.729Z,3.03
2022-10-12T03:36:21.739Z,2.70
2022-10-12T03:40:23.704Z,2.30
2022-10-12T03:44:25.783Z,2.47
2022-10-12T03:48:27.836Z,2.60
2022-10-12T03:52:29.847Z,2.33
2022-10-12T03:56:31.882Z,2.60
2022-10-12T04:00:33.941Z,2.05
2022-10-12T04:04:35.981Z,2.38
2022-10-12T04:08:40.152Z,1.80
2022-10-12T04:12:42.337Z,2.15
2022-10-12T04:16:44.297Z,2.30
2022-10-12T04:20:49.948Z,2.30
2022-10-12T04:24:52.031Z,2.72
2022-10-12T04:28:54.122Z,2.88
2022-10-12T04:32:56.444Z,3.35
2022-10-12T04:36:58.422Z,4.93
2022-10-12T04:41:00.415Z,4.15
2022-10-12T04:45:02.587Z,3.83
2022-10-12T04:49:04.669Z,4.22
2022-10-12T04:53:06.674Z,4.00
2022-10-12T04:57:08.769Z,2.92
2022-10-12T05:01:11.110Z,2.85
2022-10-12T05:05:13.184Z,2.97
2022-10-12T05:09:17.066Z,2.42
2022-10-12T05:13:19.451Z,2.45
2022-10-12T05:17:21.407Z,2.60
2022-10-12T05:21:23.416Z,2.90
2022-10-12T05:25:25.673Z,2.58
2022-10-12T05:29:27.658Z,2.50
2022-10-12T05:33:29.938Z,3.20
2022-10-12T05:37:33.281Z,3.08
2022-10-12T05:41:35.283Z,2.55
2022-10-12T05:45:37.333Z,2.53
2022-10-12T05:49:39.359Z,2.58
2022-10-12T05:53:41.480Z,2.72
2022-10-12T05:57:44.325Z,2.50
2022-10-12T06:01:49.782Z,2.58
2022-10-12T06:05:51.913Z,3.00
2022-10-12T06:09:54.219Z,3.20
2022-10-12T06:13:56.209Z,2.58
2022-10-12T06:17:58.289Z,3.20
2022-10-12T06:22:00.292Z,4.80
2022-10-12T06:26:02.470Z,4.82
2022-10-12T06:30:05.122Z,4.78
2022-10-12T06:34:07.163Z,4.57
2022-10-12T06:38:09.276Z,4.75
2022-10-12T06:42:11.868Z,5.20
2022-10-12T06:46:24.408Z,5.03
2022-10-12T06:50:26.792Z,5.22
2022-10-12T06:54:28.776Z,5.18
2022-10-12T06:58:30.768Z,4.40
2022-10-12T07:02:33.676Z,4.75
2022-10-12T07:06:35.704Z,4.80
2022-10-12T07:10:37.663Z,5.03
2022-10-12T07:14:39.821Z,4.93
2022-10-12T07:18:41.997Z,5.30
2022-10-12T07:22:44.558Z,5.25
2022-10-12T07:26:46.573Z,4.05
2022-10-12T07:30:48.748Z,5.30
2022-10-12T07:34:50.800Z,5.20
2022-10-12T07:38:52.964Z,5.00
2022-10-12T07:43:23.315Z,4.70
2022-10-12T07:47:17.750Z,6.70
2022-10-12T07:51:19.874Z,9.50
2022-10-12T07:55:21.901Z,10.95
2022-10-12T07:59:24.148Z,10.32
2022-10-12T08:03:26.197Z,7.00
2022-10-12T08:07:28.190Z,7.88
2022-10-12T08:11:30.320Z,4.82
2022-10-12T08:15:32.340Z,2.22
2022-10-12T08:19:36.372Z,2.58
2022-10-12T08:23:39.057Z,2.40
2022-10-12T08:27:41.535Z,1.88
2022-10-12T08:31:43.649Z,2.65
2022-10-12T08:35:47.760Z,2.03
2022-10-12T08:39:49.786Z,2.78
2022-10-12T08:44:04.163Z,3.22
2022-10-12T08:48:12.354Z,3.65
2022-10-12T08:52:41.480Z,3.50
2022-10-12T08:56:44.745Z,2.83
2022-10-12T09:00:50.663Z,3.03
2022-10-12T09:05:01.396Z,3.10
2022-10-12T09:09:15.684Z,3.28
2022-10-12T09:13:26.746Z,3.30
2022-10-12T09:17:47.465Z,3.15
2022-10-12T09:21:50.191Z,3.47
2022-10-12T09:25:56.889Z,4.05
2022-10-12T09:30:05.364Z,4.30
2022-10-12T09:34:09.541Z,5.38
2022-10-12T09:38:11.913Z,5.03
2022-10-12T09:42:13.918Z,5.32
2022-10-12T09:46:19.747Z,5.15
2022-10-12T09:50:40.850Z,5.22
2022-10-12T09:54:53.584Z,4.95
2022-10-12T09:59:05.545Z,5.38
2022-10-12T10:03:27.876Z,5.55
2022-10-12T10:07:35.804Z,6.50
2022-10-12T10:11:37.795Z,6.30
2022-10-12T10:15:40.250Z,7.10
2022-10-12T10:19:49.279Z,6.65
2022-10-12T10:23:54.423Z,6.75
2022-10-12T10:28:27.770Z,6.93
2022-10-12T10:32:31.542Z,5.80
2022-10-12T10:36:40.717Z,6.28
2022-10-12T10:40:42.782Z,6.40
2022-10-12T10:44:59.908Z,6.13
2022-10-12T10:49:08.942Z,5.63
2022-10-12T10:53:25.169Z,4.85
2022-10-12T10:57:27.781Z,5.28
2022-10-12T11:01:50.369Z,4.60
2022-10-12T11:06:08.791Z,5.03
2022-10-12T11:10:19.072Z,5.00
2022-10-12T11:14:28.662Z,4.38
2022-10-12T11:18:44.651Z,3.78
2022-10-12T11:23:04.946Z,4.00
2022-10-12T11:27:12.560Z,3.53
2022-10-12T11:31:20.081Z,4.68
2022-10-12T11:35:28.155Z,4.40
2022-10-12T11:39:34.578Z,4.35
2022-10-12T11:43:44.286Z,4.40
2022-10-12T11:47:49.167Z,4.40
2022-10-12T11:51:55.419Z,3.97
2022-10-12T11:56:09.906Z,4.30
2022-10-12T12:00:23.823Z,3.75
2022-10-12T12:04:47.472Z,3.45
2022-10-12T12:09:17.712Z,3.75
2022-10-12T12:13:23.240Z,3.70
2022-10-12T12:17:31.686Z,3.90
2022-10-12T12:22:12.541Z,4.43
2022-10-12T12:26:17.872Z,3.42
2022-10-12T12:30:19.847Z,3.55
2022-10-12T12:34:22.824Z,3.75
2022-10-12T12:38:30.878Z,3.70
2022-10-12T12:42:34.198Z,3.75
2022-10-12T12:46:54.315Z,4.13
2022-10-12T12:50:59.624Z,3.42
2022-10-12T12:55:18.512Z,3.88
2022-10-12T12:59:48.147Z,3.65
2022-10-12T13:04:03.306Z,3.70
2022-10-12T13:08:11.365Z,4.50
2022-10-12T13:12:39.862Z,4.60
2022-10-12T13:21:25.770Z,3.75
2022-10-12T13:25:43.751Z,4.03
2022-10-12T13:29:53.078Z,4.10
2022-10-12T13:34:11.672Z,4.20
2022-10-12T13:38:26.343Z,4.80
2022-10-12T13:42:33.634Z,4.13
2022-10-12T13:51:00.224Z,4.57
2022-10-12T13:55:15.197Z,4.63
2022-10-12T13:59:21.218Z,4.38
2022-10-12T14:03:34.206Z,4.10
2022-10-12T14:07:38.608Z,4.80
2022-10-12T14:11:42.660Z,3.97
2022-10-12T14:15:44.926Z,4.15
2022-10-12T14:19:51.301Z,4.78
2022-10-12T14:23:54.583Z,4.60
2022-10-12T14:28:01.630Z,4.57
2022-10-12T14:32:26.423Z,5.63
2022-10-12T14:36:29.094Z,5.28
2022-10-12T14:40:41.927Z,4.90
2022-10-12T14:44:44.275Z,5.45
2022-10-12T14:48:46.274Z,5.85
2022-10-12T14:52:51.533Z,6.00
2022-10-12T14:56:53.555Z,6.55
2022-10-12T15:00:56.765Z,7.45
2022-10-12T15:04:59.666Z,5.50
2022-10-12T15:09:01.755Z,5.82
2022-10-12T15:13:03.938Z,5.20
2022-10-12T15:17:05.985Z,5.32
2022-10-12T15:21:08.751Z,5.13
2022-10-12T15:25:22.247Z,5.50
2022-10-12T15:29:24.553Z,6.22
2022-10-12T15:33:26.566Z,5.80
2022-10-12T15:37:31.267Z,6.43
2022-10-12T15:41:33.367Z,5.28
2022-10-12T15:45:38.433Z,5.60
2022-10-12T15:49:40.430Z,5.97
2022-10-12T15:53:44.734Z,6.03
2022-10-12T15:57:47.036Z,6.78
2022-10-12T16:01:49.080Z,6.85
2022-10-12T16:05:51.069Z,9.00
2022-10-12T16:09:53.170Z,8.70
2022-10-12T16:13:56.886Z,8.57
2022-10-12T16:18:00.739Z,7.43
2022-10-12T16:22:04.735Z,7.70
2022-10-12T16:26:11.755Z,8.05
2022-10-12T16:30:14.564Z,7.15
2022-10-12T16:34:16.616Z,7.50
2022-10-12T16:38:20.221Z,8.30
2022-10-12T16:42:22.895Z,7.10
2022-10-12T16:46:24.994Z,7.40
2022-10-12T16:50:27.132Z,7.57
2022-10-12T16:54:29.273Z,7.78
2022-10-12T16:58:31.418Z,7.75
2022-10-12T17:02:33.445Z,11.55
2022-10-12T17:06:35.509Z,9.10
2022-10-12T17:10:42.698Z,8.07
2022-10-12T17:14:44.723Z,8.50
2022-10-12T17:18:46.703Z,8.57
2022-10-12T17:22:48.690Z,9.07
2022-10-12T17:26:51.036Z,8.40
2022-10-12T17:30:53.052Z,8.30
2022-10-12T17:34:55.720Z,8.63
2022-10-12T17:38:58.786Z,10.63
2022-10-12T17:43:00.773Z,10.05
2022-10-12T17:47:02.904Z,9.73
2022-10-12T17:51:09.582Z,10.00
2022-10-12T17:55:29.631Z,10.13
2022-10-12T17:59:33.596Z,9.68
2022-10-12T18:03:35.808Z,10.07
2022-10-12T18:07:38.476Z,9.45
2022-10-12T18:11:40.626Z,9.85
2022-10-12T18:15:43.775Z,9.60
2022-10-12T18:19:47.071Z,9.55
2022-10-12T18:23:50.040Z,9.45
2022-10-12T18:27:52.411Z,9.02
2022-10-12T18:31:54.390Z,10.40
2022-10-12T18:36:04.824Z,12.13
2022-10-12T18:40:07.469Z,13.55
2022-10-12T18:44:10.759Z,13.02
2022-10-12T18:48:13.453Z,12.32
2022-10-12T18:52:15.740Z,12.05
2022-10-12T18:56:18.544Z,12.63
2022-10-12T19:00:20.674Z,13.43
2022-10-12T19:04:22.777Z,12.07
2022-10-12T19:08:24.772Z,12.25
2022-10-12T19:12:26.795Z,10.38
2022-10-12T19:16:29.879Z,10.85
2022-10-12T19:20:32.629Z,14.02
2022-10-12T19:24:34.807Z,10.00
2022-10-12T19:28:36.989Z,12.70
2022-10-12T19:32:39.047Z,10.90
2022-10-12T19:36:41.545Z,12.80
2022-10-12T19:40:43.704Z,11.88
2022-10-12T19:44:45.741Z,11.00
2022-10-12T19:48:50.524Z,11.60
2022-10-12T19:52:52.599Z,12.18
2022-10-12T19:56:54.596Z,10.05
2022-10-12T20:01:01.124Z,10.73
2022-10-12T20:05:03.340Z,11.67
2022-10-12T20:09:07.486Z,12.48
2022-10-12T20:13:09.496Z,12.70
2022-10-12T20:17:11.536Z,10.75
2022-10-12T20:21:16.355Z,13.45
2022-10-12T20:25:18.437Z,11.75
2022-10-12T20:29:20.489Z,11.52
2022-10-12T20:33:22.552Z,13.07
2022-10-12T20:37:24.705Z,12.63
2022-10-12T20:41:27.814Z,13.32
2022-10-12T20:45:29.871Z,17.33
2022-10-12T20:49:31.860Z,23.42
2022-10-12T20:53:34.315Z,21.65
2022-10-12T20:57:36.483Z,19.52
2022-10-12T21:01:38.513Z,19.27
2022-10-12T21:05:40.591Z,17.85
2022-10-12T21:09:42.781Z,18.65
2022-10-12T21:13:45.956Z,24.08
2022-10-12T21:17:47.975Z,30.38
2022-10-12T21:21:49.951Z,23.00
2022-10-12T21:25:52.734Z,20.92
2022-10-12T21:29:54.788Z,21.25
2022-10-12T21:33:56.788Z,28.73
2022-10-12T21:37:58.780Z,26.60
2022-10-12T21:42:00.819Z,27.38
2022-10-12T21:46:11.832Z,25.48
2022-10-12T21:50:13.892Z,19.17
2022-10-12T21:54:15.893Z,20.67
2022-10-12T21:58:17.986Z,20.08
2022-10-12T22:02:20.276Z,17.98
2022-10-12T22:06:24.416Z,17.65
2022-10-12T22:10:26.602Z,16.10
2022-10-12T22:14:28.657Z,14.13
2022-10-12T22:18:30.765Z,13.52
2022-10-12T22:22:33.109Z,13.23
2022-10-12T22:26:35.366Z,12.68
2022-10-12T22:30:40.681Z,12.43
2022-10-12T22:34:42.696Z,12.70
2022-10-12T22:38:44.943Z,14.77
2022-10-12T22:42:46.920Z,13.05
2022-10-12T22:46:48.986Z,12.77
2022-10-12T22:50:52.240Z,13.02
2022-10-12T22:54:54.299Z,13.57
2022-10-12T22:58:58.445Z,16.20
2022-10-12T23:03:00.461Z,18.33
2022-10-12T23:07:02.497Z,16.67
2022-10-12T23:11:10.496Z,14.88
2022-10-12T23:15:12.518Z,13.80
2022-10-12T23:19:16.332Z,13.25
2022-10-12T23:23:18.425Z,12.63
2022-10-12T23:27:20.419Z,12.82
2022-10-12T23:31:25.726Z,11.40
2022-10-12T23:35:27.835Z,13.93
2022-10-12T23:39:31.779Z,14.18
2022-10-12T23:43:34.718Z,15.15
2022-10-12T23:47:39.103Z,20.55
2022-10-12T23:51:41.839Z,14.48
2022-10-12T23:55:44.213Z,10.35
2022-10-12T23:59:46.197Z,11.13
